Time;durP1;ratioP1;P1;durP2;ratioP2;P2;SDS_P1;SDS_P2;PMS_P1;PMS_P2;Temp;Humidity;BMP_temperature;BMP_pressure;BME280_temperature;BME280_humidity;BME280_pressure;Samples;Min_cycle;Max_cycle;Signal;HPM_P1;HPM_P2
2022/01/09 00:00:35;;;;;;;0.70;0.22;;;9.90;72.30;;;;;;2266892;55;20948;-83
2022/01/09 00:03:02;;;;;;;0.50;0.20;;;9.90;72.40;;;;;;2267151;55;20979;-84
2022/01/09 00:05:28;;;;;;;0.10;0.10;;;9.90;72.50;;;;;;2494918;54;21373;-83
2022/01/09 00:07:54;;;;;;;0.45;0.20;;;10.00;71.50;;;;;;2495172;54;21036;-83
2022/01/09 00:10:21;;;;;;;0.22;0.10;;;9.90;72.40;;;;;;2494629;54;21039;-82
2022/01/09 00:12:47;;;;;;;0.45;0.20;;;10.00;71.50;;;;;;2268069;55;20931;-81
2022/01/09 00:15:13;;;;;;;0.20;0.20;;;10.00;71.50;;;;;;2495115;54;20913;-82
2022/01/09 00:17:40;;;;;;;0.60;0.20;;;10.00;71.40;;;;;;2495415;54;21298;-81
2022/01/09 00:20:07;;;;;;;0.10;0.10;;;10.10;71.70;;;;;;2488129;54;21354;-82
2022/01/09 00:22:45;;;;;;;0.10;0.10;;;10.10;71.40;;;;;;2495722;54;20936;-82
2022/01/09 00:25:12;;;;;;;1.00;0.20;;;10.10;71.60;;;;;;2492606;55;21004;-81
2022/01/09 00:27:39;;;;;;;0.20;0.20;;;10.10;71.80;;;;;;2265148;55;21081;-83
2022/01/09 00:30:06;;;;;;;0.40;0.13;;;10.20;71.70;;;;;;2495305;55;21279;-82
2022/01/09 00:32:32;;;;;;;0.28;0.20;;;10.20;71.20;;;;;;2494838;55;20947;-83
2022/01/09 00:34:59;;;;;;;0.62;0.20;;;10.20;70.90;;;;;;2494834;55;20959;-81
2022/01/09 00:37:25;;;;;;;0.13;0.10;;;10.30;71.30;;;;;;2494826;55;21304;-84
2022/01/09 00:39:54;;;;;;;0.70;0.20;;;10.30;71.50;;;;;;2267312;55;21715;-83
2022/01/09 00:42:20;;;;;;;0.62;0.30;;;10.30;70.90;;;;;;2491814;54;20988;-84
2022/01/09 00:44:47;;;;;;;0.50;0.20;;;10.30;71.30;;;;;;2480137;54;21420;-83
2022/01/09 00:47:13;;;;;;;0.30;0.20;;;10.30;71.10;;;;;;2493775;54;20940;-83
2022/01/09 00:49:39;;;;;;;0.90;0.40;;;10.40;71.10;;;;;;2492837;54;21059;-83
2022/01/09 00:52:06;;;;;;;0.62;0.17;;;10.40;71.20;;;;;;2494003;55;21367;-83
2022/01/09 00:54:32;;;;;;;0.55;0.25;;;10.40;71.30;;;;;;2493193;55;20963;-82
2022/01/09 00:57:00;;;;;;;0.37;0.20;;;10.40;71.40;;;;;;2494044;54;21065;-82
2022/01/09 00:59:28;;;;;;;0.85;0.30;;;10.40;71.30;;;;;;2485538;54;20966;-83
2022/01/09 01:01:54;;;;;;;0.82;0.30;;;10.40;70.80;;;;;;2270546;55;21007;-83
2022/01/09 01:04:20;;;;;;;0.50;0.22;;;10.40;71.10;;;;;;2481913;55;21003;-83
2022/01/09 01:06:49;;;;;;;0.43;0.28;;;10.40;70.90;;;;;;2492818;55;21114;-84
2022/01/09 01:09:16;;;;;;;0.75;0.37;;;10.40;70.40;;;;;;2489500;54;20968;-82
2022/01/09 01:11:43;;;;;;;0.77;0.22;;;10.50;70.90;;;;;;2492452;55;20967;-85
2022/01/09 01:14:10;;;;;;;0.73;0.30;;;10.30;70.90;;;;;;2265646;55;20979;-83
2022/01/09 01:16:37;;;;;;;0.45;0.32;;;10.40;71.00;;;;;;2266800;55;20959;-83
2022/01/09 01:19:04;;;;;;;0.20;0.10;;;10.40;71.30;;;;;;2495351;55;20984;-82
2022/01/09 01:21:35;;;;;;;1.02;0.30;;;10.40;71.10;;;;;;2495112;55;21460;-83
2022/01/09 01:24:02;;;;;;;0.50;0.22;;;10.40;70.90;;;;;;2495274;55;20935;-84
2022/01/09 01:26:29;;;;;;;0.75;0.30;;;10.40;71.20;;;;;;2494392;54;20945;-84
2022/01/09 01:28:56;;;;;;;0.57;0.20;;;10.40;71.30;;;;;;2494570;54;21418;-83
2022/01/09 01:31:23;;;;;;;1.15;0.20;;;10.40;71.30;;;;;;2493928;54;21010;-83
2022/01/09 01:33:49;;;;;;;0.45;0.17;;;10.40;71.80;;;;;;2266998;56;21007;-83
2022/01/09 01:36:15;;;;;;;1.20;0.30;;;10.50;71.60;;;;;;2266815;56;20930;-84
2022/01/09 01:38:42;;;;;;;1.65;0.22;;;10.50;71.40;;;;;;2274484;55;21008;-83
2022/01/09 01:41:08;;;;;;;0.10;0.10;;;10.50;71.30;;;;;;2480850;54;21079;-82
2022/01/09 01:43:35;;;;;;;0.47;0.20;;;10.50;71.30;;;;;;2494911;54;20993;-82
2022/01/09 01:46:03;;;;;;;2.58;0.50;;;10.50;71.30;;;;;;2267207;55;21002;-84
2022/01/09 01:48:30;;;;;;;1.00;0.35;;;10.50;71.00;;;;;;2493355;55;20932;-82
2022/01/09 01:50:57;;;;;;;0.88;0.20;;;10.60;71.60;;;;;;2494880;55;21466;-82
2022/01/09 01:53:24;;;;;;;0.65;0.30;;;10.50;71.40;;;;;;2494411;55;20983;-83
2022/01/09 01:55:55;;;;;;;0.65;0.25;;;10.60;71.10;;;;;;2493341;55;20955;-82
2022/01/09 01:58:23;;;;;;;0.77;0.30;;;10.60;71.40;;;;;;2268752;55;20948;-84
2022/01/09 02:00:49;;;;;;;0.35;0.20;;;10.60;71.60;;;;;;2267465;55;20943;-81
2022/01/09 02:03:16;;;;;;;1.08;0.40;;;10.60;71.40;;;;;;2267142;55;20912;-81
2022/01/09 02:05:43;;;;;;;0.88;0.35;;;10.60;71.30;;;;;;2492654;54;21778;-84
2022/01/09 02:08:09;;;;;;;1.52;0.40;;;10.60;71.50;;;;;;2494769;55;21013;-84
2022/01/09 02:10:42;;;;;;;0.80;0.30;;;10.60;71.60;;;;;;2495337;54;20987;-84
2022/01/09 02:13:08;;;;;;;0.95;0.50;;;10.60;71.20;;;;;;2495116;54;20975;-83
2022/01/09 02:15:39;;;;;;;1.42;0.30;;;10.60;71.20;;;;;;2493306;54;20936;-84
2022/01/09 02:18:10;;;;;;;1.02;0.30;;;10.60;70.80;;;;;;2267005;56;21502;-84
2022/01/09 02:20:37;;;;;;;0.60;0.22;;;10.50;70.70;;;;;;2495103;55;21374;-82
2022/01/09 02:23:05;;;;;;;1.90;0.40;;;10.50;70.80;;;;;;2494283;54;20997;-83
2022/01/09 02:25:33;;;;;;;1.40;0.30;;;10.40;70.40;;;;;;2495168;54;20932;-82
2022/01/09 02:27:59;;;;;;;0.80;0.70;;;10.40;70.60;;;;;;2488400;54;20958;-83
2022/01/09 02:30:26;;;;;;;1.62;0.30;;;10.40;70.70;;;;;;2481381;54;20995;-84
2022/01/09 02:32:52;;;;;;;1.23;0.30;;;10.40;70.90;;;;;;2494936;54;20925;-82
2022/01/09 02:35:22;;;;;;;1.25;0.40;;;10.30;70.80;;;;;;2475258;54;20962;-84
2022/01/09 02:37:48;;;;;;;0.50;0.20;;;10.30;69.80;;;;;;2344565;54;1886127;-84
2022/01/09 02:40:15;;;;;;;1.65;0.30;;;10.30;70.60;;;;;;2471110;54;20938;-84
2022/01/09 02:42:41;;;;;;;1.40;0.22;;;10.30;70.50;;;;;;2492824;55;21276;-82
2022/01/09 02:45:07;;;;;;;0.85;0.25;;;10.30;70.30;;;;;;2270555;55;20977;-82
2022/01/09 02:47:35;;;;;;;0.30;0.20;;;10.30;70.70;;;;;;2264686;55;21024;-83
2022/01/09 02:50:11;;;;;;;0.25;0.20;;;10.30;70.80;;;;;;2496249;54;21050;-80
2022/01/09 02:52:49;;;;;;;0.70;0.28;;;10.30;70.80;;;;;;2259793;55;20949;-82
2022/01/09 02:55:15;;;;;;;0.73;0.20;;;10.30;70.80;;;;;;2266803;55;20960;-81
2022/01/09 02:57:46;;;;;;;0.32;0.17;;;10.30;70.40;;;;;;2493925;55;20987;-83
2022/01/09 03:00:15;;;;;;;0.43;0.20;;;10.20;70.50;;;;;;2266843;56;20959;-84
2022/01/09 03:02:41;;;;;;;0.40;0.25;;;10.20;70.70;;;;;;2494784;55;20955;-84
2022/01/09 03:05:08;;;;;;;0.88;0.20;;;10.20;69.90;;;;;;2495113;55;20919;-82
2022/01/09 03:07:35;;;;;;;0.40;0.20;;;10.20;69.90;;;;;;2494891;55;20984;-84
2022/01/09 03:10:01;;;;;;;0.68;0.20;;;10.10;69.60;;;;;;2266714;56;20979;-83
2022/01/09 03:12:28;;;;;;;0.88;0.40;;;10.10;69.90;;;;;;2493932;55;20972;-83
2022/01/09 03:14:54;;;;;;;2.33;0.30;;;10.10;69.80;;;;;;2494447;54;21846;-83
2022/01/09 03:17:24;;;;;;;0.50;0.20;;;10.00;69.40;;;;;;2493899;54;21914;-82
2022/01/09 03:19:50;;;;;;;0.52;0.10;;;10.00;69.40;;;;;;2273055;55;21001;-83
2022/01/09 03:22:16;;;;;;;1.58;0.30;;;10.00;69.30;;;;;;2481432;54;20954;-83
2022/01/09 03:24:43;;;;;;;1.65;0.40;;;9.90;69.80;;;;;;2272539;55;21195;-83
2022/01/09 03:27:10;;;;;;;0.68;0.20;;;9.80;70.00;;;;;;2479572;54;20988;-82
2022/01/09 03:29:36;;;;;;;0.82;0.30;;;9.70;70.00;;;;;;2493770;54;21715;-82
2022/01/09 03:32:04;;;;;;;0.30;0.20;;;9.70;70.30;;;;;;2251183;55;21515;-81
2022/01/09 03:34:30;;;;;;;0.10;0.10;;;9.60;70.20;;;;;;2264904;55;20931;-81
2022/01/09 03:36:56;;;;;;;0.10;0.10;;;9.50;69.90;;;;;;2269701;55;20987;-83
2022/01/09 03:39:22;;;;;;;0.17;0.17;;;9.40;69.70;;;;;;2493455;54;21529;-84
2022/01/09 03:41:49;;;;;;;0.20;0.10;;;9.40;69.50;;;;;;2492789;55;20919;-81
2022/01/09 03:44:15;;;;;;;0.10;0.10;;;9.20;69.20;;;;;;2269461;55;20980;-83
2022/01/09 03:46:41;;;;;;;0.10;0.10;;;9.20;69.30;;;;;;2491528;54;20936;-82
2022/01/09 03:49:07;;;;;;;0.10;0.10;;;9.10;69.30;;;;;;2492664;54;21028;-82
2022/01/09 03:51:37;;;;;;;0.10;0.10;;;9.00;69.30;;;;;;2250309;55;21097;-80
2022/01/09 03:54:06;;;;;;;0.28;0.10;;;8.80;69.30;;;;;;2258710;55;20987;-81
2022/01/09 03:56:32;;;;;;;0.25;0.10;;;8.70;69.20;;;;;;2265848;55;21014;-81
2022/01/09 03:58:59;;;;;;;0.10;0.10;;;8.70;69.30;;;;;;2267111;55;20932;-81
2022/01/09 04:01:25;;;;;;;0.13;0.10;;;8.50;69.30;;;;;;2271270;55;20984;-80
2022/01/09 04:03:52;;;;;;;0.22;0.10;;;8.50;70.10;;;;;;2252757;55;20975;-79
2022/01/09 04:06:18;;;;;;;0.60;0.20;;;8.40;69.50;;;;;;2262838;55;21437;-82
2022/01/09 04:08:45;;;;;;;0.10;0.10;;;8.30;69.60;;;;;;2489367;54;21008;-80
2022/01/09 04:11:11;;;;;;;0.57;0.22;;;8.20;69.60;;;;;;2272015;55;20972;-82
2022/01/09 04:13:38;;;;;;;0.30;0.10;;;8.10;69.70;;;;;;2479783;54;21015;-81
2022/01/09 04:16:04;;;;;;;0.20;0.20;;;8.10;69.70;;;;;;2492065;55;20935;-80
2022/01/09 04:18:31;;;;;;;0.15;0.10;;;8.00;69.60;;;;;;2492358;55;20987;-80
2022/01/09 04:20:58;;;;;;;0.10;0.10;;;7.90;69.80;;;;;;2267808;55;21021;-82
2022/01/09 04:23:24;;;;;;;0.10;0.10;;;7.80;70.00;;;;;;2492949;54;20995;-80
2022/01/09 04:25:50;;;;;;;0.10;0.10;;;7.80;70.30;;;;;;2492961;54;21727;-80
2022/01/09 04:28:16;;;;;;;0.10;0.10;;;7.70;70.50;;;;;;2493358;55;21008;-80
2022/01/09 04:30:43;;;;;;;0.10;0.10;;;7.70;70.70;;;;;;2268288;55;21274;-81
2022/01/09 04:33:10;;;;;;;0.10;0.10;;;7.60;70.80;;;;;;2263500;56;20987;-81
2022/01/09 04:35:37;;;;;;;0.10;0.10;;;7.60;71.00;;;;;;2493137;55;20947;-81
2022/01/09 04:38:04;;;;;;;0.37;0.20;;;7.60;71.20;;;;;;2493167;55;20851;-81
2022/01/09 04:40:30;;;;;;;0.20;0.10;;;7.50;71.20;;;;;;2264327;56;20971;-81
2022/01/09 04:43:00;;;;;;;0.10;0.10;;;7.50;71.50;;;;;;2267666;55;21052;-80
2022/01/09 04:45:28;;;;;;;0.10;0.10;;;7.50;71.70;;;;;;2491483;54;20940;-81
2022/01/09 04:48:00;;;;;;;0.68;0.35;;;7.40;71.60;;;;;;2469573;54;20983;-82
2022/01/09 04:50:29;;;;;;;0.77;0.30;;;7.60;71.90;;;;;;2264836;55;20959;-81
2022/01/09 04:53:04;;;;;;;0.32;0.20;;;7.50;71.90;;;;;;2267308;55;21047;-80
2022/01/09 04:55:31;;;;;;;0.73;0.30;;;7.50;72.00;;;;;;2263823;55;20963;-80
2022/01/09 04:57:58;;;;;;;3.67;1.42;;;7.40;72.10;;;;;;2493177;55;21963;-82
2022/01/09 05:00:24;;;;;;;3.42;0.82;;;7.40;72.00;;;;;;2493546;55;21066;-81
2022/01/09 05:02:50;;;;;;;1.50;0.50;;;7.40;72.10;;;;;;2268527;55;21462;-82
2022/01/09 05:05:17;;;;;;;0.85;0.30;;;7.40;72.30;;;;;;2268593;55;20979;-82
2022/01/09 05:07:43;;;;;;;1.98;0.40;;;7.40;72.40;;;;;;2490805;54;20955;-82
2022/01/09 05:10:10;;;;;;;0.50;0.20;;;7.40;72.50;;;;;;2267817;55;20955;-82
2022/01/09 05:12:37;;;;;;;0.52;0.30;;;7.40;72.60;;;;;;2491774;55;21969;-82
2022/01/09 05:15:05;;;;;;;0.70;0.20;;;7.40;72.70;;;;;;2494401;55;20955;-81
2022/01/09 05:17:31;;;;;;;0.10;0.10;;;7.40;72.80;;;;;;2264864;55;20998;-80
2022/01/09 05:19:58;;;;;;;0.47;0.30;;;7.40;72.90;;;;;;2493903;55;21849;-81
2022/01/09 05:22:27;;;;;;;0.28;0.20;;;7.40;73.00;;;;;;2493017;55;21066;-80
2022/01/09 05:24:54;;;;;;;0.50;0.20;;;7.50;73.30;;;;;;2493520;55;21404;-80
2022/01/09 05:27:21;;;;;;;0.22;0.20;;;7.50;73.40;;;;;;2493775;55;20967;-80
2022/01/09 05:29:47;;;;;;;0.30;0.20;;;7.50;73.50;;;;;;2494186;55;20924;-82
2022/01/09 05:32:14;;;;;;;0.28;0.17;;;7.50;73.50;;;;;;2493880;54;21403;-80
2022/01/09 05:34:40;;;;;;;1.12;0.30;;;7.60;73.70;;;;;;2475965;54;21015;-81
2022/01/09 05:37:07;;;;;;;0.40;0.20;;;7.60;73.70;;;;;;2485864;54;21028;-80
2022/01/09 05:39:34;;;;;;;1.40;0.40;;;7.60;73.70;;;;;;2485727;55;20923;-81
2022/01/09 05:42:01;;;;;;;0.45;0.20;;;7.70;73.80;;;;;;2264508;55;20943;-81
2022/01/09 05:44:28;;;;;;;0.95;0.30;;;7.70;73.80;;;;;;2493679;54;20905;-83
2022/01/09 05:46:54;;;;;;;1.87;0.40;;;7.70;73.80;;;;;;2492171;54;20947;-81
2022/01/09 05:49:21;;;;;;;2.78;0.60;;;7.70;73.60;;;;;;2492119;54;20951;-79
2022/01/09 05:51:47;;;;;;;2.35;0.50;;;7.70;73.50;;;;;;2493949;55;20924;-83
2022/01/09 05:54:14;;;;;;;1.55;0.40;;;7.80;73.30;;;;;;2493472;55;20943;-80
2022/01/09 05:56:40;;;;;;;0.75;0.40;;;7.70;73.20;;;;;;2493476;55;20925;-80
2022/01/09 05:59:06;;;;;;;1.60;0.47;;;7.70;73.20;;;;;;2493544;55;20927;-81
2022/01/09 06:01:34;;;;;;;2.58;0.50;;;7.70;73.10;;;;;;2266183;55;21039;-80
2022/01/09 06:04:01;;;;;;;1.60;0.43;;;7.70;73.50;;;;;;2490574;55;21052;-81
2022/01/09 06:06:27;;;;;;;3.62;0.50;;;7.70;73.10;;;;;;2492020;54;21008;-82
2022/01/09 06:08:53;;;;;;;1.65;0.60;;;7.70;73.10;;;;;;2491735;54;21448;-81
2022/01/09 06:11:20;;;;;;;0.80;0.35;;;7.70;73.10;;;;;;2491598;54;22066;-81
2022/01/09 06:13:46;;;;;;;1.42;0.28;;;7.70;73.20;;;;;;2263073;56;20936;-81
2022/01/09 06:16:13;;;;;;;1.42;0.30;;;7.60;72.90;;;;;;2267012;55;22025;-81
2022/01/09 06:18:41;;;;;;;1.70;0.30;;;7.70;72.90;;;;;;2491232;54;21699;-80
2022/01/09 06:21:07;;;;;;;0.62;0.25;;;7.70;72.90;;;;;;2492534;55;21441;-80
2022/01/09 06:23:33;;;;;;;0.35;0.20;;;7.70;73.00;;;;;;2491719;54;21071;-81
2022/01/09 06:26:00;;;;;;;0.88;0.20;;;7.70;72.90;;;;;;2262753;55;20943;-83
2022/01/09 06:28:26;;;;;;;0.45;0.20;;;7.60;72.90;;;;;;2465956;55;20988;-81
2022/01/09 06:30:52;;;;;;;0.40;0.20;;;7.60;72.90;;;;;;2491670;54;20977;-81
2022/01/09 06:33:20;;;;;;;0.65;0.32;;;7.60;73.00;;;;;;2257056;55;21851;-82
2022/01/09 06:35:46;;;;;;;0.60;0.30;;;7.70;72.90;;;;;;2249402;55;20999;-81
2022/01/09 06:38:13;;;;;;;0.55;0.20;;;7.60;72.60;;;;;;2489593;54;20992;-80
2022/01/09 06:40:40;;;;;;;0.60;0.28;;;7.60;72.50;;;;;;2487591;54;21128;-81
2022/01/09 06:43:06;;;;;;;0.95;0.30;;;7.60;72.50;;;;;;2487589;54;21377;-80
2022/01/09 06:45:32;;;;;;;1.20;0.30;;;7.60;72.60;;;;;;2258720;55;21995;-82
2022/01/09 06:47:59;;;;;;;1.62;0.40;;;7.60;72.60;;;;;;2460970;55;21079;-82
2022/01/09 06:50:26;;;;;;;0.60;0.20;;;7.60;72.60;;;;;;2263480;55;22069;-82
2022/01/09 06:52:52;;;;;;;0.93;0.30;;;7.60;72.80;;;;;;2487775;54;20971;-80
2022/01/09 06:55:18;;;;;;;0.82;0.30;;;7.60;72.90;;;;;;2487818;54;21067;-81
2022/01/09 06:57:45;;;;;;;1.10;0.43;;;7.60;73.10;;;;;;2486494;54;21039;-82
2022/01/09 07:00:14;;;;;;;1.48;0.30;;;7.50;73.10;;;;;;2486102;54;20944;-81
2022/01/09 07:02:41;;;;;;;1.92;0.50;;;7.60;73.20;;;;;;2488335;54;21024;-82
2022/01/09 07:05:08;;;;;;;3.05;0.77;;;7.60;73.30;;;;;;2470313;54;21950;-81
2022/01/09 07:07:35;;;;;;;2.80;0.60;;;7.60;73.20;;;;;;2482814;54;21360;-82
2022/01/09 07:10:01;;;;;;;3.75;0.70;;;7.40;72.90;;;;;;2268038;55;20980;-80
2022/01/09 07:12:28;;;;;;;2.08;0.40;;;7.60;73.20;;;;;;2259320;55;21579;-82
2022/01/09 07:14:55;;;;;;;2.37;0.70;;;7.60;73.20;;;;;;2259576;56;25394;-82
2022/01/09 07:17:21;;;;;;;1.80;0.47;;;7.60;73.10;;;;;;2260580;55;21003;-83
2022/01/09 07:19:48;;;;;;;0.85;0.35;;;7.60;73.10;;;;;;2487725;55;20955;-81
2022/01/09 07:22:14;;;;;;;3.08;0.57;;;7.60;72.90;;;;;;2488250;54;20996;-82
2022/01/09 07:24:41;;;;;;;2.50;0.60;;;7.60;72.90;;;;;;2250440;55;21153;-81
2022/01/09 07:27:07;;;;;;;4.12;0.90;;;7.60;72.90;;;;;;2247709;55;21108;-82
2022/01/09 07:29:34;;;;;;;2.12;0.80;;;7.60;72.90;;;;;;2262413;55;21008;-81
2022/01/09 07:32:02;;;;;;;2.30;0.85;;;7.50;72.80;;;;;;2463096;54;21031;-82
2022/01/09 07:34:28;;;;;;;4.00;0.68;;;7.60;72.90;;;;;;2485840;54;21067;-82
2022/01/09 07:36:54;;;;;;;1.83;0.70;;;7.50;72.60;;;;;;2487882;55;20987;-81
2022/01/09 07:39:21;;;;;;;3.42;0.73;;;7.50;72.50;;;;;;2488097;54;21051;-81
2022/01/09 07:41:50;;;;;;;4.90;0.80;;;7.50;72.40;;;;;;2476793;54;20999;-81
2022/01/09 07:44:16;;;;;;;3.03;0.60;;;7.50;72.40;;;;;;2489912;54;20976;-80
2022/01/09 07:46:42;;;;;;;2.12;0.65;;;7.50;72.50;;;;;;2260531;55;21603;-81
2022/01/09 07:49:09;;;;;;;3.47;0.75;;;7.50;72.40;;;;;;2262072;55;20919;-82
2022/01/09 07:51:36;;;;;;;2.65;0.95;;;7.40;72.40;;;;;;2490305;55;20991;-81
2022/01/09 07:54:15;;;;;;;6.20;1.40;;;7.40;72.50;;;;;;2490596;54;20920;-82
2022/01/09 07:56:41;;;;;;;5.03;1.62;;;7.40;72.70;;;;;;2266279;55;20967;-81
2022/01/09 07:59:08;;;;;;;4.57;1.42;;;7.40;72.80;;;;;;2485382;54;20983;-81
2022/01/09 08:01:34;;;;;;;5.22;1.40;;;7.40;72.90;;;;;;2471863;54;21070;-82
2022/01/09 08:04:00;;;;;;;4.32;1.33;;;7.40;73.00;;;;;;2491400;55;20943;-82
2022/01/09 08:06:27;;;;;;;4.72;1.50;;;7.40;73.10;;;;;;2271529;55;21008;-82
2022/01/09 08:08:55;;;;;;;5.43;1.55;;;7.40;73.10;;;;;;2478364;55;21412;-83
2022/01/09 08:11:22;;;;;;;5.50;1.00;;;7.40;73.20;;;;;;2475608;54;21130;-81
2022/01/09 08:13:49;;;;;;;2.15;1.08;;;7.40;73.40;;;;;;2471322;54;21028;-82
2022/01/09 08:16:16;;;;;;;6.32;1.33;;;7.40;73.30;;;;;;2258745;55;20978;-83
2022/01/09 08:18:44;;;;;;;3.15;0.80;;;7.40;73.20;;;;;;2478692;54;21008;-80
2022/01/09 08:21:19;;;;;;;5.03;1.30;;;7.50;73.40;;;;;;2464153;54;20954;-83
2022/01/09 08:24:15;;;;;;;4.55;0.80;;;7.50;73.30;;;;;;2463371;55;21353;-83
2022/01/09 08:26:42;;;;;;;2.58;0.70;;;7.50;73.30;;;;;;2274266;55;21127;-83
2022/01/09 08:29:08;;;;;;;3.28;0.70;;;7.50;73.30;;;;;;2477413;54;20980;-79
2022/01/09 08:31:35;;;;;;;3.80;0.73;;;7.50;73.30;;;;;;2488792;54;20920;-80
2022/01/09 08:34:01;;;;;;;4.68;1.17;;;7.50;73.40;;;;;;2488776;54;21493;-82
2022/01/09 08:36:30;;;;;;;2.50;0.75;;;7.50;73.30;;;;;;2491135;54;21043;-82
2022/01/09 08:38:58;;;;;;;3.08;0.80;;;7.50;73.40;;;;;;2488717;54;21004;-82
2022/01/09 08:41:32;;;;;;;3.83;1.17;;;7.60;73.50;;;;;;2479244;54;22146;-83
2022/01/09 08:44:00;;;;;;;3.83;1.10;;;7.50;73.20;;;;;;2488317;54;20944;-83
2022/01/09 08:46:28;;;;;;;2.05;0.70;;;7.60;73.40;;;;;;2258215;55;21044;-81
2022/01/09 08:49:01;;;;;;;4.62;0.80;;;7.50;73.20;;;;;;2470954;54;21948;-79
2022/01/09 08:51:28;;;;;;;3.17;0.93;;;7.60;73.50;;;;;;2479744;54;22084;-79
2022/01/09 08:53:55;;;;;;;5.55;1.10;;;7.60;73.50;;;;;;2489624;54;20975;-81
2022/01/09 08:56:23;;;;;;;3.87;1.00;;;7.60;73.50;;;;;;2486445;54;20979;-79
2022/01/09 08:59:01;;;;;;;6.30;0.93;;;7.60;73.60;;;;;;2487501;54;21041;-82
2022/01/09 09:01:43;;;;;;;3.92;0.90;;;7.60;73.50;;;;;;2452590;55;20992;-80
2022/01/09 09:04:09;;;;;;;4.55;1.12;;;7.70;73.40;;;;;;2483074;54;21052;-81
2022/01/09 09:06:36;;;;;;;4.18;1.05;;;7.70;73.50;;;;;;2464680;55;21036;-84
2022/01/09 09:09:02;;;;;;;6.75;1.62;;;7.70;73.40;;;;;;2471364;54;20946;-84
2022/01/09 09:11:32;;;;;;;5.28;1.60;;;7.70;73.40;;;;;;2264534;55;20916;-82
2022/01/09 09:14:01;;;;;;;3.12;1.20;;;7.70;73.30;;;;;;2463795;54;21014;-84
2022/01/09 09:16:28;;;;;;;4.90;1.08;;;7.80;73.40;;;;;;2487099;54;21517;-82
2022/01/09 09:18:54;;;;;;;6.68;1.27;;;7.90;73.60;;;;;;2464591;54;22141;-83
2022/01/09 09:21:23;;;;;;;5.62;1.55;;;7.80;73.60;;;;;;2486442;54;20979;-81
2022/01/09 09:23:49;;;;;;;4.18;1.50;;;7.80;73.50;;;;;;2482594;54;21007;-80
2022/01/09 09:26:16;;;;;;;5.43;1.35;;;7.80;73.50;;;;;;2489832;54;21551;-83
2022/01/09 09:28:45;;;;;;;3.67;1.27;;;7.90;73.60;;;;;;2489211;54;20987;-82
2022/01/09 09:31:15;;;;;;;6.07;1.20;;;7.90;73.80;;;;;;2267612;55;21028;-82
2022/01/09 09:33:42;;;;;;;3.53;1.20;;;7.90;73.70;;;;;;2474392;54;21170;-82
2022/01/09 09:36:08;;;;;;;3.15;1.00;;;7.90;73.60;;;;;;2479470;54;21064;-79
2022/01/09 09:38:35;;;;;;;3.42;0.80;;;8.00;73.60;;;;;;2251856;55;21041;-83
2022/01/09 09:41:04;;;;;;;4.00;0.90;;;8.00;73.60;;;;;;2480933;54;21114;-82
2022/01/09 09:43:32;;;;;;;4.85;1.15;;;8.00;73.60;;;;;;2470442;54;20963;-82
2022/01/09 09:46:00;;;;;;;5.57;1.30;;;8.10;73.50;;;;;;2475901;54;21042;-82
2022/01/09 09:48:29;;;;;;;5.10;1.10;;;8.10;73.80;;;;;;2476322;54;21006;-81
2022/01/09 09:50:56;;;;;;;3.62;1.10;;;8.10;73.70;;;;;;2262599;55;21550;-81
2022/01/09 09:53:26;;;;;;;4.72;1.20;;;8.10;73.60;;;;;;2262683;55;20991;-85
2022/01/09 09:55:55;;;;;;;4.57;1.10;;;8.20;73.40;;;;;;2473179;54;21277;-84
2022/01/09 09:58:23;;;;;;;5.70;1.02;;;8.20;73.30;;;;;;2483952;54;21300;-81
2022/01/09 10:00:57;;;;;;;5.45;1.15;;;8.20;73.20;;;;;;2244499;55;21438;-83
2022/01/09 10:03:30;;;;;;;4.70;1.27;;;8.20;73.10;;;;;;2264850;55;21023;-83
2022/01/09 10:05:57;;;;;;;5.53;1.35;;;8.20;73.30;;;;;;2464579;55;20936;-81
2022/01/09 10:08:37;;;;;;;3.60;1.17;;;8.30;73.60;;;;;;2489373;54;21518;-83
2022/01/09 10:11:17;;;;;;;5.60;0.98;;;8.30;73.50;;;;;;2460319;54;21019;-83
2022/01/09 10:13:44;;;;;;;5.45;1.12;;;8.30;73.50;;;;;;2488628;54;20984;-81
2022/01/09 10:16:13;;;;;;;4.72;1.30;;;8.30;73.50;;;;;;2480595;54;20964;-82
2022/01/09 10:18:53;;;;;;;3.55;1.05;;;8.40;73.60;;;;;;2475640;55;21110;-81
2022/01/09 10:21:26;;;;;;;5.93;1.25;;;8.40;73.20;;;;;;2477637;54;20986;-83
2022/01/09 10:24:10;;;;;;;4.20;1.23;;;8.50;73.10;;;;;;2263476;55;21009;-84
2022/01/09 10:26:40;;;;;;;3.67;1.17;;;8.40;72.90;;;;;;2256935;55;21842;-83
2022/01/09 10:29:07;;;;;;;4.70;1.10;;;8.50;73.00;;;;;;2488216;55;20931;-84
2022/01/09 10:31:46;;;;;;;4.03;1.00;;;8.50;73.30;;;;;;2492199;55;21480;-84
2022/01/09 10:34:18;;;;;;;4.65;0.98;;;8.50;73.20;;;;;;2269077;55;21036;-83
2022/01/09 10:36:50;;;;;;;3.30;0.88;;;8.50;73.40;;;;;;2481984;54;20959;-83
2022/01/09 10:39:36;;;;;;;3.00;0.95;;;8.50;73.30;;;;;;2491849;54;21703;-80
2022/01/09 10:42:07;;;;;;;4.22;0.98;;;8.60;72.80;;;;;;2480734;54;21498;-83
2022/01/09 10:44:35;;;;;;;3.60;1.20;;;8.50;72.80;;;;;;2493789;53;21293;-82
2022/01/09 10:47:06;;;;;;;2.92;0.80;;;8.50;72.80;;;;;;2263715;55;21054;-83
2022/01/09 10:49:40;;;;;;;3.65;0.88;;;8.50;72.50;;;;;;2466629;55;21046;-82
2022/01/09 10:52:27;;;;;;;3.28;0.80;;;8.50;72.20;;;;;;2270728;55;21355;-82
2022/01/09 10:54:54;;;;;;;4.47;0.82;;;8.40;71.70;;;;;;2479167;53;21299;-82
2022/01/09 10:57:37;;;;;;;3.33;0.90;;;8.40;71.50;;;;;;2491666;55;21873;-82
2022/01/09 11:00:24;;;;;;;3.20;0.77;;;8.30;71.20;;;;;;2250293;56;20932;-82
2022/01/09 11:02:51;;;;;;;5.37;1.20;;;8.20;70.70;;;;;;2492138;54;21357;-81
2022/01/09 11:05:18;;;;;;;3.55;0.98;;;8.10;71.10;;;;;;2246444;55;21520;-84
2022/01/09 11:07:48;;;;;;;3.62;0.80;;;7.90;71.40;;;;;;2266542;55;21878;-82
2022/01/09 11:10:16;;;;;;;4.12;0.73;;;8.10;71.80;;;;;;2272433;55;21020;-83
2022/01/09 11:12:48;;;;;;;3.67;0.77;;;8.00;71.90;;;;;;2485779;54;20985;-81
2022/01/09 11:15:18;;;;;;;3.83;1.00;;;7.90;72.00;;;;;;2485845;54;20929;-83
2022/01/09 11:17:45;;;;;;;2.22;0.80;;;7.90;72.10;;;;;;2493014;54;20994;-83
2022/01/09 11:20:11;;;;;;;5.65;1.05;;;7.90;72.30;;;;;;2261641;55;20919;-83
2022/01/09 11:22:37;;;;;;;6.00;1.15;;;7.90;72.40;;;;;;2494332;52;20931;-84
2022/01/09 11:25:30;;;;;;;2.28;0.75;;;7.90;72.50;;;;;;2494152;55;21075;-83
2022/01/09 11:28:12;;;;;;;6.00;1.60;;;7.90;72.40;;;;;;2265721;55;20939;-84
2022/01/09 11:31:07;;;;;;;4.72;1.30;;;7.90;72.70;;;;;;2487679;55;21015;-80
2022/01/09 11:37:25;;;;;;;6.35;1.92;;;7.90;72.80;;;;;;2491374;54;21080;-81
2022/01/09 11:39:51;;;;;;;6.03;2.40;;;7.90;72.80;;;;;;2491769;55;20924;-82
2022/01/09 11:42:17;;;;;;;5.62;2.40;;;8.00;73.20;;;;;;2491135;55;20947;-82
2022/01/09 11:44:56;;;;;;;3.97;1.80;;;8.00;73.20;;;;;;2491085;54;20941;-83
2022/01/09 11:47:23;;;;;;;5.32;1.60;;;8.00;73.30;;;;;;2471460;54;20992;-83
2022/01/09 11:50:16;;;;;;;3.90;1.37;;;8.00;73.30;;;;;;2489914;54;20985;-83
2022/01/09 11:52:59;;;;;;;3.65;1.02;;;8.00;73.00;;;;;;2490794;55;20992;-82
2022/01/09 11:55:37;;;;;;;3.25;1.12;;;8.00;73.00;;;;;;2490336;54;20968;-83
2022/01/09 11:58:08;;;;;;;3.33;1.10;;;8.00;73.00;;;;;;2268456;55;20928;-83
2022/01/09 12:00:38;;;;;;;4.25;1.10;;;8.00;73.40;;;;;;2255519;55;20875;-83
2022/01/09 12:03:40;;;;;;;4.12;0.95;;;8.10;73.70;;;;;;2264785;55;20920;-83
2022/01/09 12:06:10;;;;;;;3.53;0.77;;;8.10;73.20;;;;;;2492012;54;21085;-82
2022/01/09 12:09:10;;;;;;;3.65;0.88;;;8.20;73.50;;;;;;2490383;54;20992;-82
2022/01/09 12:12:15;;;;;;;2.70;0.68;;;8.20;73.10;;;;;;2262485;55;21549;-83
2022/01/09 12:14:55;;;;;;;3.12;1.00;;;8.20;73.40;;;;;;2491705;54;20935;-81
2022/01/09 12:17:43;;;;;;;1.55;0.60;;;8.30;73.80;;;;;;2491564;54;21019;-82
2022/01/09 12:20:37;;;;;;;2.97;0.60;;;8.30;73.80;;;;;;2260075;55;20964;-82
2022/01/09 12:23:05;;;;;;;1.85;0.57;;;8.40;74.00;;;;;;2491307;54;20968;-83
2022/01/09 12:25:51;;;;;;;3.62;0.70;;;8.50;75.30;;;;;;2259056;55;21495;-83
2022/01/09 12:28:25;;;;;;;5.00;1.45;;;8.50;74.10;;;;;;2465232;55;21007;-82
2022/01/09 12:31:01;;;;;;;3.65;1.30;;;8.60;74.40;;;;;;2490696;55;20999;-81
2022/01/09 12:33:49;;;;;;;3.83;1.00;;;8.70;75.00;;;;;;2490139;55;21408;-83
2022/01/09 12:36:23;;;;;;;3.20;1.00;;;8.80;75.30;;;;;;2490460;54;21621;-83
2022/01/09 12:38:53;;;;;;;2.25;0.65;;;8.90;76.10;;;;;;2490946;55;20951;-81
2022/01/09 12:41:24;;;;;;;2.28;0.85;;;9.00;76.10;;;;;;2490842;55;21286;-80
2022/01/09 12:43:57;;;;;;;5.67;1.07;;;9.20;75.70;;;;;;2492671;55;20931;-83
2022/01/09 12:46:24;;;;;;;2.95;1.00;;;9.20;75.10;;;;;;2483512;54;21067;-82
2022/01/09 12:49:02;;;;;;;3.65;1.00;;;9.30;74.70;;;;;;2480558;54;21533;-81
2022/01/09 12:51:30;;;;;;;3.00;0.80;;;9.40;74.50;;;;;;2263558;55;20938;-81
2022/01/09 12:54:06;;;;;;;2.70;0.90;;;9.40;74.00;;;;;;2491714;55;20955;-83
2022/01/09 12:56:35;;;;;;;3.03;0.80;;;9.40;73.70;;;;;;2265764;55;20936;-83
2022/01/09 12:59:07;;;;;;;1.52;0.65;;;9.50;73.10;;;;;;2491662;54;20955;-83
2022/01/09 13:01:37;;;;;;;2.80;0.75;;;9.40;72.80;;;;;;2490405;54;21292;-82
2022/01/09 13:04:09;;;;;;;3.28;0.70;;;9.40;72.60;;;;;;2263577;55;21011;-82
2022/01/09 13:06:38;;;;;;;4.37;0.73;;;9.40;72.60;;;;;;2489141;54;21095;-82
2022/01/09 13:09:24;;;;;;;3.80;0.82;;;9.40;72.30;;;;;;2490380;55;20967;-80